首页
METAR-TAF:

METAR-TAF

机场 :

科苏梅尔岛, 墨西哥

纬度: 20-32N, 经度: 086-56W, 海拔: 5米

当前天气观测

该预报发布于58分钟前的22:45 UTC
风速4节,风向
温度 26°C
湿度 79%
气压 1014 hPa
能見度: 12.9公里
少量云层高于1800英尺
散云层高于8000英尺

METAR: MMCZ 092245Z 10004KT 8SM FEW018 SCT080 26/22 A2994 RMK 8/530

时间: 18:43 (23:43 UTC)

预报

该预报发布于47分钟前的22:56 UTC
预报有效从10日的 00点(UTC)到 11日的 06点(UTC)
风速5节,风向东转东南
能見度: 9.7公里
散云层高于2000英尺
散云层高于8000英尺
从 10日的 0600点(UTC)
风速5节,风向东南
能見度: 9.7公里
散云层高于1500英尺
从 10日的 1800点(UTC)
风速10节,风向东南
能見度: 9.7公里
散云层高于2000英尺
从 11日的 0200点(UTC)
风速5节,风向东南
能見度: 9.7公里
散云层高于1500英尺

TAF: MMCZ 092256Z 1000/1106 12005KT 6SM HZ SCT020 SCT080 FM100600 13005KT 6SM HZ SCT015 FM101800 13010KT 6SM HZ SCT020 FM110200 13005KT 6SM HZ SCT015

超过4000个机场的气象观测和天气预报(METAR&TAF报告)。

可查询的气象台以黄色和红色小点在地图上表示。

将鼠标移到小点上方,可查看气象台名称。

然后点击查看天气观测和预报。

如需切换地图:点击带黑十字的绿色按钮放大地图;点击带横线的绿色按钮缩小地图;或者点击绿色箭头查看邻近地区的地图。


METAR-TAF: